sensor_id;sensor_type;location;lat;lon;timestamp;P1;durP1;ratioP1;P2;durP2;ratioP2
58918;SDS011;44704;50.122;19.932;2023-01-20T00:01:32;44.70;;;22.40;;
58918;SDS011;44704;50.122;19.932;2023-01-20T00:04:01;45.40;;;21.50;;
58918;SDS011;44704;50.122;19.932;2023-01-20T00:06:28;46.20;;;21.40;;
58918;SDS011;44704;50.122;19.932;2023-01-20T00:08:56;48.50;;;22.30;;
58918;SDS011;44704;50.122;19.932;2023-01-20T00:13:52;47.70;;;22.90;;
58918;SDS011;44704;50.122;19.932;2023-01-20T00:16:21;46.20;;;21.70;;
58918;SDS011;44704;50.122;19.932;2023-01-20T00:18:49;44.80;;;22.50;;
58918;SDS011;44704;50.122;19.932;2023-01-20T00:21:16;45.50;;;21.40;;
58918;SDS011;44704;50.122;19.932;2023-01-20T00:23:44;42.90;;;21.50;;
58918;SDS011;44704;50.122;19.932;2023-01-20T00:26:13;42.00;;;20.50;;
58918;SDS011;44704;50.122;19.932;2023-01-20T00:28:42;40.90;;;20.00;;
58918;SDS011;44704;50.122;19.932;2023-01-20T00:31:17;42.00;;;20.60;;
58918;SDS011;44704;50.122;19.932;2023-01-20T00:33:46;50.70;;;23.10;;
58918;SDS011;44704;50.122;19.932;2023-01-20T00:36:15;46.30;;;22.40;;
58918;SDS011;44704;50.122;19.932;2023-01-20T00:38:42;45.90;;;21.50;;
58918;SDS011;44704;50.122;19.932;2023-01-20T00:41:10;43.40;;;21.50;;
58918;SDS011;44704;50.122;19.932;2023-01-20T00:43:37;47.80;;;21.90;;
58918;SDS011;44704;50.122;19.932;2023-01-20T00:46:04;47.40;;;22.60;;
58918;SDS011;44704;50.122;19.932;2023-01-20T00:48:32;45.20;;;21.70;;
58918;SDS011;44704;50.122;19.932;2023-01-20T00:50:59;44.90;;;22.30;;
58918;SDS011;44704;50.122;19.932;2023-01-20T00:53:26;44.80;;;23.00;;
58918;SDS011;44704;50.122;19.932;2023-01-20T00:55:53;47.90;;;23.00;;
58918;SDS011;44704;50.122;19.932;2023-01-20T00:58:20;44.80;;;22.30;;
58918;SDS011;44704;50.122;19.932;2023-01-20T01:00:48;49.40;;;23.10;;
58918;SDS011;44704;50.122;19.932;2023-01-20T01:03:16;48.80;;;25.40;;
58918;SDS011;44704;50.122;19.932;2023-01-20T01:05:44;49.30;;;24.50;;
58918;SDS011;44704;50.122;19.932;2023-01-20T01:08:11;47.70;;;24.40;;
58918;SDS011;44704;50.122;19.932;2023-01-20T01:10:39;44.70;;;22.50;;
58918;SDS011;44704;50.122;19.932;2023-01-20T01:13:06;52.30;;;24.00;;
58918;SDS011;44704;50.122;19.932;2023-01-20T01:15:34;52.80;;;24.70;;
58918;SDS011;44704;50.122;19.932;2023-01-20T01:18:01;47.60;;;21.80;;
58918;SDS011;44704;50.122;19.932;2023-01-20T01:20:29;51.40;;;24.10;;
58918;SDS011;44704;50.122;19.932;2023-01-20T01:22:56;46.60;;;23.10;;
58918;SDS011;44704;50.122;19.932;2023-01-20T01:25:23;44.00;;;22.10;;
58918;SDS011;44704;50.122;19.932;2023-01-20T01:27:50;45.20;;;22.00;;
58918;SDS011;44704;50.122;19.932;2023-01-20T01:30:17;47.00;;;21.90;;
58918;SDS011;44704;50.122;19.932;2023-01-20T01:32:44;43.90;;;19.50;;
58918;SDS011;44704;50.122;19.932;2023-01-20T01:35:10;48.00;;;22.50;;
58918;SDS011;44704;50.122;19.932;2023-01-20T01:37:37;55.70;;;25.30;;
58918;SDS011;44704;50.122;19.932;2023-01-20T01:40:04;51.60;;;24.40;;
58918;SDS011;44704;50.122;19.932;2023-01-20T01:42:32;45.50;;;21.90;;
58918;SDS011;44704;50.122;19.932;2023-01-20T01:47:47;45.10;;;22.70;;
58918;SDS011;44704;50.122;19.932;2023-01-20T01:50:19;48.70;;;22.60;;
58918;SDS011;44704;50.122;19.932;2023-01-20T01:52:49;51.00;;;24.30;;
58918;SDS011;44704;50.122;19.932;2023-01-20T01:55:19;46.90;;;22.00;;
58918;SDS011;44704;50.122;19.932;2023-01-20T01:57:50;52.90;;;21.90;;
58918;SDS011;44704;50.122;19.932;2023-01-20T02:00:18;54.70;;;25.00;;
58918;SDS011;44704;50.122;19.932;2023-01-20T02:02:45;53.70;;;25.20;;
58918;SDS011;44704;50.122;19.932;2023-01-20T02:05:13;45.80;;;21.10;;
58918;SDS011;44704;50.122;19.932;2023-01-20T02:07:43;52.40;;;23.70;;
58918;SDS011;44704;50.122;19.932;2023-01-20T02:10:12;46.50;;;21.70;;
58918;SDS011;44704;50.122;19.932;2023-01-20T02:12:40;51.60;;;23.20;;
58918;SDS011;44704;50.122;19.932;2023-01-20T02:15:12;51.60;;;24.30;;
58918;SDS011;44704;50.122;19.932;2023-01-20T02:20:49;43.90;;;21.90;;
58918;SDS011;44704;50.122;19.932;2023-01-20T02:23:44;48.80;;;21.60;;
58918;SDS011;44704;50.122;19.932;2023-01-20T02:26:15;43.90;;;20.70;;
58918;SDS011;44704;50.122;19.932;2023-01-20T02:37:21;43.10;;;16.90;;
58918;SDS011;44704;50.122;19.932;2023-01-20T02:42:37;32.60;;;16.00;;
58918;SDS011;44704;50.122;19.932;2023-01-20T02:45:32;34.50;;;16.40;;
58918;SDS011;44704;50.122;19.932;2023-01-20T02:51:04;35.00;;;16.40;;
58918;SDS011;44704;50.122;19.932;2023-01-20T02:53:39;38.70;;;16.00;;
58918;SDS011;44704;50.122;19.932;2023-01-20T02:56:12;31.70;;;15.80;;
58918;SDS011;44704;50.122;19.932;2023-01-20T02:58:42;35.00;;;15.40;;
58918;SDS011;44704;50.122;19.932;2023-01-20T03:01:37;29.80;;;13.70;;
58918;SDS011;44704;50.122;19.932;2023-01-20T03:04:10;35.70;;;15.60;;
58918;SDS011;44704;50.122;19.932;2023-01-20T03:06:41;32.30;;;14.80;;
58918;SDS011;44704;50.122;19.932;2023-01-20T03:09:13;38.30;;;16.40;;
58918;SDS011;44704;50.122;19.932;2023-01-20T03:11:49;33.20;;;14.90;;
58918;SDS011;44704;50.122;19.932;2023-01-20T03:14:18;39.40;;;17.80;;
58918;SDS011;44704;50.122;19.932;2023-01-20T03:16:45;30.40;;;15.50;;
58918;SDS011;44704;50.122;19.932;2023-01-20T03:19:14;34.00;;;15.40;;
58918;SDS011;44704;50.122;19.932;2023-01-20T03:21:42;34.80;;;15.50;;
58918;SDS011;44704;50.122;19.932;2023-01-20T03:24:09;37.40;;;16.90;;
58918;SDS011;44704;50.122;19.932;2023-01-20T03:26:36;35.00;;;15.90;;
58918;SDS011;44704;50.122;19.932;2023-01-20T03:29:05;31.60;;;15.30;;
58918;SDS011;44704;50.122;19.932;2023-01-20T03:31:43;37.20;;;15.90;;
58918;SDS011;44704;50.122;19.932;2023-01-20T03:34:17;32.60;;;15.10;;
58918;SDS011;44704;50.122;19.932;2023-01-20T03:36:46;33.20;;;14.80;;
58918;SDS011;44704;50.122;19.932;2023-01-20T03:39:15;35.90;;;16.50;;
58918;SDS011;44704;50.122;19.932;2023-01-20T03:41:51;35.50;;;16.50;;
58918;SDS011;44704;50.122;19.932;2023-01-20T03:44:25;39.70;;;15.70;;
58918;SDS011;44704;50.122;19.932;2023-01-20T03:50:14;35.60;;;16.40;;
58918;SDS011;44704;50.122;19.932;2023-01-20T03:52:54;36.00;;;15.40;;
58918;SDS011;44704;50.122;19.932;2023-01-20T03:55:40;38.10;;;17.30;;
58918;SDS011;44704;50.122;19.932;2023-01-20T03:58:10;42.10;;;17.20;;
58918;SDS011;44704;50.122;19.932;2023-01-20T04:00:41;39.00;;;17.30;;
58918;SDS011;44704;50.122;19.932;2023-01-20T04:03:18;44.10;;;18.70;;
58918;SDS011;44704;50.122;19.932;2023-01-20T04:05:48;38.40;;;16.50;;
58918;SDS011;44704;50.122;19.932;2023-01-20T04:08:16;42.30;;;18.10;;
58918;SDS011;44704;50.122;19.932;2023-01-20T04:10:46;41.60;;;17.80;;
58918;SDS011;44704;50.122;19.932;2023-01-20T04:25:10;41.90;;;17.70;;
58918;SDS011;44704;50.122;19.932;2023-01-20T04:27:42;38.80;;;17.60;;
58918;SDS011;44704;50.122;19.932;2023-01-20T04:30:09;34.80;;;17.00;;
58918;SDS011;44704;50.122;19.932;2023-01-20T04:32:36;40.20;;;18.60;;
58918;SDS011;44704;50.122;19.932;2023-01-20T04:35:03;32.40;;;15.50;;
58918;SDS011;44704;50.122;19.932;2023-01-20T04:37:30;33.60;;;16.00;;
58918;SDS011;44704;50.122;19.932;2023-01-20T04:39:57;37.50;;;17.50;;
58918;SDS011;44704;50.122;19.932;2023-01-20T04:42:24;35.10;;;14.90;;
58918;SDS011;44704;50.122;19.932;2023-01-20T04:44:51;38.80;;;16.60;;
58918;SDS011;44704;50.122;19.932;2023-01-20T04:47:18;36.90;;;17.70;;
58918;SDS011;44704;50.122;19.932;2023-01-20T04:49:44;36.60;;;17.00;;
58918;SDS011;44704;50.122;19.932;2023-01-20T04:52:11;41.50;;;16.60;;
58918;SDS011;44704;50.122;19.932;2023-01-20T04:54:38;34.90;;;16.50;;
58918;SDS011;44704;50.122;19.932;2023-01-20T04:57:05;40.60;;;17.60;;
58918;SDS011;44704;50.122;19.932;2023-01-20T04:59:32;36.00;;;17.60;;
58918;SDS011;44704;50.122;19.932;2023-01-20T05:01:59;38.90;;;17.90;;
58918;SDS011;44704;50.122;19.932;2023-01-20T05:04:25;36.90;;;16.70;;
58918;SDS011;44704;50.122;19.932;2023-01-20T05:06:52;36.00;;;17.30;;
58918;SDS011;44704;50.122;19.932;2023-01-20T05:09:19;42.50;;;18.10;;
58918;SDS011;44704;50.122;19.932;2023-01-20T05:11:46;41.40;;;17.20;;
58918;SDS011;44704;50.122;19.932;2023-01-20T05:14:13;35.10;;;17.90;;
58918;SDS011;44704;50.122;19.932;2023-01-20T05:16:40;37.00;;;16.60;;
58918;SDS011;44704;50.122;19.932;2023-01-20T05:19:07;35.60;;;16.60;;
58918;SDS011;44704;50.122;19.932;2023-01-20T05:21:35;38.30;;;15.30;;
58918;SDS011;44704;50.122;19.932;2023-01-20T05:24:02;32.40;;;14.80;;
58918;SDS011;44704;50.122;19.932;2023-01-20T05:26:29;35.00;;;16.00;;
58918;SDS011;44704;50.122;19.932;2023-01-20T05:28:56;38.10;;;16.90;;
58918;SDS011;44704;50.122;19.932;2023-01-20T05:31:23;31.50;;;14.80;;
58918;SDS011;44704;50.122;19.932;2023-01-20T05:33:50;28.20;;;13.20;;
58918;SDS011;44704;50.122;19.932;2023-01-20T05:36:17;28.10;;;13.10;;
58918;SDS011;44704;50.122;19.932;2023-01-20T05:38:44;31.40;;;13.00;;
58918;SDS011;44704;50.122;19.932;2023-01-20T05:41:11;27.90;;;12.20;;
58918;SDS011;44704;50.122;19.932;2023-01-20T05:43:38;27.60;;;12.00;;
58918;SDS011;44704;50.122;19.932;2023-01-20T05:46:05;18.60;;;9.40;;
58918;SDS011;44704;50.122;19.932;2023-01-20T05:48:32;21.50;;;9.80;;
58918;SDS011;44704;50.122;19.932;2023-01-20T05:50:59;21.50;;;9.40;;
58918;SDS011;44704;50.122;19.932;2023-01-20T05:53:25;20.90;;;10.10;;
58918;SDS011;44704;50.122;19.932;2023-01-20T05:56:02;21.50;;;10.20;;
58918;SDS011;44704;50.122;19.932;2023-01-20T05:58:31;17.80;;;8.60;;
58918;SDS011;44704;50.122;19.932;2023-01-20T06:01:08;17.90;;;8.20;;
58918;SDS011;44704;50.122;19.932;2023-01-20T06:03:37;21.20;;;8.80;;
58918;SDS011;44704;50.122;19.932;2023-01-20T06:06:05;16.70;;;8.90;;
58918;SDS011;44704;50.122;19.932;2023-01-20T06:08:34;22.00;;;10.70;;
58918;SDS011;44704;50.122;19.932;2023-01-20T06:11:01;26.40;;;11.50;;
58918;SDS011;44704;50.122;19.932;2023-01-20T06:13:28;21.80;;;10.80;;
58918;SDS011;44704;50.122;19.932;2023-01-20T06:15:55;22.10;;;10.90;;
58918;SDS011;44704;50.122;19.932;2023-01-20T06:18:23;23.20;;;11.20;;
58918;SDS011;44704;50.122;19.932;2023-01-20T06:20:50;35.70;;;14.20;;
58918;SDS011;44704;50.122;19.932;2023-01-20T06:23:17;36.90;;;16.80;;
58918;SDS011;44704;50.122;19.932;2023-01-20T06:25:44;36.70;;;16.00;;
58918;SDS011;44704;50.122;19.932;2023-01-20T06:28:10;35.90;;;15.00;;
58918;SDS011;44704;50.122;19.932;2023-01-20T06:30:37;28.90;;;12.70;;
58918;SDS011;44704;50.122;19.932;2023-01-20T06:33:06;28.30;;;13.60;;
58918;SDS011;44704;50.122;19.932;2023-01-20T06:35:36;32.90;;;14.00;;
58918;SDS011;44704;50.122;19.932;2023-01-20T06:38:03;28.20;;;12.80;;
58918;SDS011;44704;50.122;19.932;2023-01-20T06:40:30;33.90;;;13.90;;
58918;SDS011;44704;50.122;19.932;2023-01-20T06:42:57;32.10;;;13.60;;
58918;SDS011;44704;50.122;19.932;2023-01-20T06:45:24;34.60;;;15.20;;
58918;SDS011;44704;50.122;19.932;2023-01-20T06:47:51;36.80;;;14.90;;
58918;SDS011;44704;50.122;19.932;2023-01-20T06:50:18;30.90;;;14.60;;
58918;SDS011;44704;50.122;19.932;2023-01-20T06:52:45;30.20;;;15.10;;
58918;SDS011;44704;50.122;19.932;2023-01-20T06:55:12;30.70;;;15.20;;
58918;SDS011;44704;50.122;19.932;2023-01-20T06:57:38;31.10;;;14.00;;
58918;SDS011;44704;50.122;19.932;2023-01-20T07:00:06;31.20;;;14.40;;
58918;SDS011;44704;50.122;19.932;2023-01-20T07:02:33;33.80;;;15.50;;
58918;SDS011;44704;50.122;19.932;2023-01-20T07:05:00;29.90;;;14.80;;
58918;SDS011;44704;50.122;19.932;2023-01-20T07:07:29;33.60;;;14.20;;
58918;SDS011;44704;50.122;19.932;2023-01-20T07:10:00;33.20;;;14.10;;
58918;SDS011;44704;50.122;19.932;2023-01-20T07:12:33;32.20;;;15.50;;
58918;SDS011;44704;50.122;19.932;2023-01-20T07:15:00;32.50;;;14.70;;
58918;SDS011;44704;50.122;19.932;2023-01-20T07:17:28;34.10;;;15.30;;
58918;SDS011;44704;50.122;19.932;2023-01-20T07:19:56;31.30;;;14.20;;
58918;SDS011;44704;50.122;19.932;2023-01-20T07:22:33;34.40;;;15.10;;
58918;SDS011;44704;50.122;19.932;2023-01-20T07:25:06;31.90;;;15.50;;
58918;SDS011;44704;50.122;19.932;2023-01-20T07:27:34;27.50;;;13.80;;
58918;SDS011;44704;50.122;19.932;2023-01-20T07:30:01;33.00;;;15.00;;
58918;SDS011;44704;50.122;19.932;2023-01-20T07:32:29;36.10;;;16.40;;
58918;SDS011;44704;50.122;19.932;2023-01-20T07:34:56;38.30;;;16.70;;
58918;SDS011;44704;50.122;19.932;2023-01-20T07:37:24;38.60;;;17.30;;
58918;SDS011;44704;50.122;19.932;2023-01-20T07:39:51;39.20;;;17.10;;
58918;SDS011;44704;50.122;19.932;2023-01-20T07:42:17;36.90;;;16.10;;
58918;SDS011;44704;50.122;19.932;2023-01-20T07:44:44;40.10;;;17.60;;
58918;SDS011;44704;50.122;19.932;2023-01-20T07:47:11;36.80;;;16.50;;
58918;SDS011;44704;50.122;19.932;2023-01-20T07:49:38;37.00;;;16.80;;
58918;SDS011;44704;50.122;19.932;2023-01-20T07:52:05;35.80;;;16.20;;
58918;SDS011;44704;50.122;19.932;2023-01-20T07:54:32;37.50;;;15.90;;
58918;SDS011;44704;50.122;19.932;2023-01-20T07:56:58;36.70;;;15.80;;
58918;SDS011;44704;50.122;19.932;2023-01-20T07:59:25;36.50;;;16.10;;
58918;SDS011;44704;50.122;19.932;2023-01-20T08:01:54;34.70;;;16.10;;
58918;SDS011;44704;50.122;19.932;2023-01-20T08:04:21;40.40;;;17.20;;
58918;SDS011;44704;50.122;19.932;2023-01-20T08:06:48;39.30;;;18.80;;
58918;SDS011;44704;50.122;19.932;2023-01-20T08:09:15;36.00;;;16.20;;
58918;SDS011;44704;50.122;19.932;2023-01-20T08:11:42;37.30;;;16.90;;
58918;SDS011;44704;50.122;19.932;2023-01-20T08:14:09;37.30;;;16.90;;
58918;SDS011;44704;50.122;19.932;2023-01-20T08:16:36;43.40;;;18.30;;
58918;SDS011;44704;50.122;19.932;2023-01-20T08:19:03;34.80;;;16.90;;
58918;SDS011;44704;50.122;19.932;2023-01-20T08:21:31;39.90;;;16.90;;
58918;SDS011;44704;50.122;19.932;2023-01-20T08:23:59;35.40;;;15.60;;
58918;SDS011;44704;50.122;19.932;2023-01-20T08:26:28;39.60;;;14.90;;
58918;SDS011;44704;50.122;19.932;2023-01-20T08:29:00;41.90;;;17.40;;
58918;SDS011;44704;50.122;19.932;2023-01-20T08:31:28;41.50;;;17.20;;
58918;SDS011;44704;50.122;19.932;2023-01-20T08:33:55;37.40;;;16.30;;
58918;SDS011;44704;50.122;19.932;2023-01-20T08:36:24;39.50;;;18.10;;
58918;SDS011;44704;50.122;19.932;2023-01-20T08:38:54;37.30;;;16.50;;
58918;SDS011;44704;50.122;19.932;2023-01-20T08:41:26;41.00;;;18.10;;
58918;SDS011;44704;50.122;19.932;2023-01-20T08:44:00;39.80;;;17.40;;
58918;SDS011;44704;50.122;19.932;2023-01-20T08:46:30;41.80;;;17.30;;
58918;SDS011;44704;50.122;19.932;2023-01-20T08:48:57;40.60;;;17.10;;
58918;SDS011;44704;50.122;19.932;2023-01-20T08:51:28;39.50;;;17.40;;
58918;SDS011;44704;50.122;19.932;2023-01-20T08:53:57;36.90;;;17.30;;
58918;SDS011;44704;50.122;19.932;2023-01-20T08:56:24;35.20;;;16.10;;
58918;SDS011;44704;50.122;19.932;2023-01-20T08:58:52;33.50;;;16.40;;
58918;SDS011;44704;50.122;19.932;2023-01-20T09:01:20;39.00;;;17.40;;
58918;SDS011;44704;50.122;19.932;2023-01-20T09:03:49;37.60;;;18.50;;
58918;SDS011;44704;50.122;19.932;2023-01-20T09:06:16;38.50;;;17.90;;
58918;SDS011;44704;50.122;19.932;2023-01-20T09:08:45;36.70;;;16.50;;
58918;SDS011;44704;50.122;19.932;2023-01-20T09:11:14;36.70;;;16.30;;
58918;SDS011;44704;50.122;19.932;2023-01-20T09:13:45;40.30;;;17.30;;
58918;SDS011;44704;50.122;19.932;2023-01-20T09:16:13;38.30;;;17.60;;
58918;SDS011;44704;50.122;19.932;2023-01-20T09:21:08;39.00;;;18.30;;
58918;SDS011;44704;50.122;19.932;2023-01-20T09:23:36;37.70;;;17.90;;
58918;SDS011;44704;50.122;19.932;2023-01-20T09:26:05;42.20;;;17.70;;
58918;SDS011;44704;50.122;19.932;2023-01-20T09:28:33;37.90;;;16.50;;
58918;SDS011;44704;50.122;19.932;2023-01-20T09:31:03;41.60;;;17.90;;
58918;SDS011;44704;50.122;19.932;2023-01-20T09:33:32;43.10;;;18.50;;
58918;SDS011;44704;50.122;19.932;2023-01-20T09:36:02;45.80;;;19.90;;
58918;SDS011;44704;50.122;19.932;2023-01-20T09:38:31;42.80;;;19.40;;
58918;SDS011;44704;50.122;19.932;2023-01-20T09:41:19;46.50;;;19.60;;
58918;SDS011;44704;50.122;19.932;2023-01-20T09:53:20;48.50;;;20.70;;
58918;SDS011;44704;50.122;19.932;2023-01-20T09:55:53;44.00;;;19.10;;
58918;SDS011;44704;50.122;19.932;2023-01-20T09:58:33;47.10;;;20.80;;
58918;SDS011;44704;50.122;19.932;2023-01-20T10:01:41;42.10;;;19.00;;
58918;SDS011;44704;50.122;19.932;2023-01-20T10:04:17;48.90;;;20.80;;
58918;SDS011;44704;50.122;19.932;2023-01-20T10:13:01;47.40;;;20.00;;
58918;SDS011;44704;50.122;19.932;2023-01-20T10:15:33;49.10;;;19.90;;
58918;SDS011;44704;50.122;19.932;2023-01-20T10:18:03;51.50;;;19.10;;
58918;SDS011;44704;50.122;19.932;2023-01-20T10:20:38;47.40;;;19.80;;
58918;SDS011;44704;50.122;19.932;2023-01-20T10:25:49;51.10;;;19.70;;
58918;SDS011;44704;50.122;19.932;2023-01-20T10:28:23;47.70;;;20.10;;
58918;SDS011;44704;50.122;19.932;2023-01-20T10:30:57;45.00;;;20.60;;
58918;SDS011;44704;50.122;19.932;2023-01-20T10:33:27;45.40;;;19.20;;
58918;SDS011;44704;50.122;19.932;2023-01-20T10:35:59;49.50;;;20.80;;
58918;SDS011;44704;50.122;19.932;2023-01-20T10:38:39;48.80;;;19.80;;
58918;SDS011;44704;50.122;19.932;2023-01-20T10:41:15;49.00;;;21.20;;
58918;SDS011;44704;50.122;19.932;2023-01-20T10:43:47;43.50;;;20.20;;
58918;SDS011;44704;50.122;19.932;2023-01-20T10:56:54;46.20;;;20.50;;
58918;SDS011;44704;50.122;19.932;2023-01-20T10:59:28;50.80;;;20.60;;
58918;SDS011;44704;50.122;19.932;2023-01-20T11:02:03;44.60;;;19.70;;
58918;SDS011;44704;50.122;19.932;2023-01-20T11:04:44;49.00;;;21.20;;
58918;SDS011;44704;50.122;19.932;2023-01-20T11:07:18;48.60;;;20.80;;
58918;SDS011;44704;50.122;19.932;2023-01-20T11:09:45;45.30;;;19.50;;
58918;SDS011;44704;50.122;19.932;2023-01-20T11:12:15;54.20;;;20.40;;
58918;SDS011;44704;50.122;19.932;2023-01-20T11:14:44;47.50;;;19.90;;
58918;SDS011;44704;50.122;19.932;2023-01-20T11:17:16;54.40;;;20.70;;
58918;SDS011;44704;50.122;19.932;2023-01-20T11:19:47;47.40;;;19.60;;
58918;SDS011;44704;50.122;19.932;2023-01-20T11:22:24;47.00;;;18.90;;
58918;SDS011;44704;50.122;19.932;2023-01-20T11:25:02;49.20;;;19.80;;
58918;SDS011;44704;50.122;19.932;2023-01-20T11:27:32;43.40;;;18.90;;
58918;SDS011;44704;50.122;19.932;2023-01-20T11:30:03;48.50;;;20.80;;
58918;SDS011;44704;50.122;19.932;2023-01-20T11:32:34;49.20;;;20.70;;
58918;SDS011;44704;50.122;19.932;2023-01-20T11:35:21;50.80;;;20.30;;
58918;SDS011;44704;50.122;19.932;2023-01-20T11:37:50;45.80;;;19.20;;
58918;SDS011;44704;50.122;19.932;2023-01-20T11:40:22;48.00;;;18.80;;
58918;SDS011;44704;50.122;19.932;2023-01-20T11:42:51;46.60;;;19.10;;
58918;SDS011;44704;50.122;19.932;2023-01-20T11:45:27;49.50;;;19.20;;
58918;SDS011;44704;50.122;19.932;2023-01-20T11:50:59;56.20;;;21.20;;
58918;SDS011;44704;50.122;19.932;2023-01-20T11:53:29;54.20;;;20.40;;
58918;SDS011;44704;50.122;19.932;2023-01-20T11:56:00;45.40;;;18.70;;
58918;SDS011;44704;50.122;19.932;2023-01-20T11:58:32;43.10;;;18.90;;
58918;SDS011;44704;50.122;19.932;2023-01-20T12:01:21;53.70;;;20.80;;
58918;SDS011;44704;50.122;19.932;2023-01-20T12:03:56;55.40;;;22.80;;
58918;SDS011;44704;50.122;19.932;2023-01-20T12:07:43;54.40;;;21.60;;
58918;SDS011;44704;50.122;19.932;2023-01-20T12:09:53;56.40;;;19.80;;
58918;SDS011;44704;50.122;19.932;2023-01-20T12:12:32;50.20;;;20.00;;
58918;SDS011;44704;50.122;19.932;2023-01-20T12:15:13;50.60;;;19.00;;
58918;SDS011;44704;50.122;19.932;2023-01-20T12:25:52;49.60;;;19.10;;
58918;SDS011;44704;50.122;19.932;2023-01-20T12:31:02;46.60;;;17.40;;
58918;SDS011;44704;50.122;19.932;2023-01-20T12:33:32;44.90;;;18.40;;
58918;SDS011;44704;50.122;19.932;2023-01-20T12:36:11;55.80;;;19.50;;
58918;SDS011;44704;50.122;19.932;2023-01-20T12:38:47;51.30;;;19.80;;
58918;SDS011;44704;50.122;19.932;2023-01-20T12:41:33;53.90;;;20.50;;
58918;SDS011;44704;50.122;19.932;2023-01-20T12:55:31;58.00;;;21.80;;
58918;SDS011;44704;50.122;19.932;2023-01-20T13:03:32;49.20;;;18.60;;
58918;SDS011;44704;50.122;19.932;2023-01-20T13:17:11;50.30;;;19.80;;
58918;SDS011;44704;50.122;19.932;2023-01-20T13:19:56;58.70;;;21.80;;
58918;SDS011;44704;50.122;19.932;2023-01-20T13:22:25;58.90;;;20.40;;
58918;SDS011;44704;50.122;19.932;2023-01-20T13:24:52;59.20;;;21.80;;
58918;SDS011;44704;50.122;19.932;2023-01-20T13:27:55;51.30;;;19.50;;
58918;SDS011;44704;50.122;19.932;2023-01-20T13:33:10;48.60;;;18.90;;
58918;SDS011;44704;50.122;19.932;2023-01-20T13:38:21;61.80;;;21.10;;
58918;SDS011;44704;50.122;19.932;2023-01-20T13:48:32;48.30;;;19.30;;
58918;SDS011;44704;50.122;19.932;2023-01-20T13:53:46;51.40;;;19.90;;
58918;SDS011;44704;50.122;19.932;2023-01-20T13:58:51;48.40;;;18.10;;
58918;SDS011;44704;50.122;19.932;2023-01-20T14:01:19;50.60;;;20.50;;
58918;SDS011;44704;50.122;19.932;2023-01-20T14:04:02;51.70;;;21.10;;
58918;SDS011;44704;50.122;19.932;2023-01-20T14:06:31;48.70;;;18.90;;
58918;SDS011;44704;50.122;19.932;2023-01-20T14:09:00;47.70;;;17.60;;
58918;SDS011;44704;50.122;19.932;2023-01-20T14:11:28;47.40;;;18.00;;
58918;SDS011;44704;50.122;19.932;2023-01-20T14:14:00;42.80;;;17.60;;
58918;SDS011;44704;50.122;19.932;2023-01-20T14:19:01;46.10;;;16.70;;
58918;SDS011;44704;50.122;19.932;2023-01-20T14:21:41;42.80;;;15.70;;
58918;SDS011;44704;50.122;19.932;2023-01-20T14:24:23;51.60;;;17.20;;
58918;SDS011;44704;50.122;19.932;2023-01-20T14:27:04;48.10;;;17.40;;
58918;SDS011;44704;50.122;19.932;2023-01-20T14:29:33;57.80;;;19.90;;
58918;SDS011;44704;50.122;19.932;2023-01-20T14:32:00;59.80;;;22.40;;
58918;SDS011;44704;50.122;19.932;2023-01-20T14:34:27;56.40;;;19.80;;
58918;SDS011;44704;50.122;19.932;2023-01-20T14:37:19;49.60;;;18.70;;
58918;SDS011;44704;50.122;19.932;2023-01-20T14:39:47;52.50;;;18.20;;
58918;SDS011;44704;50.122;19.932;2023-01-20T14:42:17;54.30;;;19.50;;
58918;SDS011;44704;50.122;19.932;2023-01-20T14:44:46;46.30;;;18.00;;
58918;SDS011;44704;50.122;19.932;2023-01-20T14:47:14;52.50;;;19.10;;
58918;SDS011;44704;50.122;19.932;2023-01-20T14:49:42;46.60;;;18.20;;
58918;SDS011;44704;50.122;19.932;2023-01-20T14:52:12;42.70;;;17.00;;
58918;SDS011;44704;50.122;19.932;2023-01-20T14:54:48;42.70;;;15.60;;
58918;SDS011;44704;50.122;19.932;2023-01-20T15:02:38;39.70;;;14.70;;
58918;SDS011;44704;50.122;19.932;2023-01-20T15:10:14;36.40;;;14.90;;
58918;SDS011;44704;50.122;19.932;2023-01-20T15:18:04;40.10;;;15.10;;
58918;SDS011;44704;50.122;19.932;2023-01-20T15:20:42;39.80;;;15.50;;
58918;SDS011;44704;50.122;19.932;2023-01-20T15:23:19;42.50;;;16.20;;
58918;SDS011;44704;50.122;19.932;2023-01-20T15:26:05;38.10;;;14.90;;
58918;SDS011;44704;50.122;19.932;2023-01-20T15:28:39;45.40;;;17.90;;
58918;SDS011;44704;50.122;19.932;2023-01-20T15:31:12;42.70;;;17.60;;
58918;SDS011;44704;50.122;19.932;2023-01-20T15:33:41;40.80;;;16.50;;
58918;SDS011;44704;50.122;19.932;2023-01-20T15:36:15;46.40;;;18.10;;
58918;SDS011;44704;50.122;19.932;2023-01-20T15:38:44;41.60;;;16.80;;
58918;SDS011;44704;50.122;19.932;2023-01-20T15:41:11;46.50;;;18.70;;
58918;SDS011;44704;50.122;19.932;2023-01-20T15:43:39;46.70;;;18.30;;
58918;SDS011;44704;50.122;19.932;2023-01-20T15:46:11;47.20;;;17.30;;
58918;SDS011;44704;50.122;19.932;2023-01-20T15:48:40;42.40;;;16.10;;
58918;SDS011;44704;50.122;19.932;2023-01-20T15:51:14;35.40;;;15.60;;
58918;SDS011;44704;50.122;19.932;2023-01-20T15:53:43;34.20;;;14.60;;
58918;SDS011;44704;50.122;19.932;2023-01-20T15:58:52;32.80;;;13.30;;
58918;SDS011;44704;50.122;19.932;2023-01-20T16:01:20;34.20;;;13.40;;
58918;SDS011;44704;50.122;19.932;2023-01-20T16:03:51;30.10;;;12.90;;
58918;SDS011;44704;50.122;19.932;2023-01-20T16:06:21;34.60;;;12.90;;
58918;SDS011;44704;50.122;19.932;2023-01-20T16:08:52;28.50;;;13.30;;
58918;SDS011;44704;50.122;19.932;2023-01-20T16:11:20;34.40;;;14.10;;
58918;SDS011;44704;50.122;19.932;2023-01-20T16:13:46;32.30;;;13.30;;
58918;SDS011;44704;50.122;19.932;2023-01-20T16:16:14;32.00;;;15.00;;
58918;SDS011;44704;50.122;19.932;2023-01-20T16:18:46;28.20;;;12.80;;
58918;SDS011;44704;50.122;19.932;2023-01-20T16:21:15;37.90;;;15.30;;
58918;SDS011;44704;50.122;19.932;2023-01-20T16:26:15;33.10;;;13.80;;
58918;SDS011;44704;50.122;19.932;2023-01-20T16:28:45;33.20;;;14.10;;
58918;SDS011;44704;50.122;19.932;2023-01-20T16:31:12;27.40;;;13.60;;
58918;SDS011;44704;50.122;19.932;2023-01-20T16:33:39;32.50;;;13.10;;
58918;SDS011;44704;50.122;19.932;2023-01-20T16:36:11;29.70;;;13.70;;
58918;SDS011;44704;50.122;19.932;2023-01-20T16:38:39;33.60;;;12.80;;
58918;SDS011;44704;50.122;19.932;2023-01-20T16:41:12;27.50;;;12.90;;
58918;SDS011;44704;50.122;19.932;2023-01-20T16:43:43;32.40;;;13.30;;
58918;SDS011;44704;50.122;19.932;2023-01-20T16:46:29;32.10;;;12.90;;
58918;SDS011;44704;50.122;19.932;2023-01-20T16:48:58;31.60;;;12.90;;
58918;SDS011;44704;50.122;19.932;2023-01-20T16:51:28;33.10;;;13.70;;
58918;SDS011;44704;50.122;19.932;2023-01-20T16:53:56;32.50;;;14.20;;
58918;SDS011;44704;50.122;19.932;2023-01-20T16:56:25;36.50;;;14.80;;
58918;SDS011;44704;50.122;19.932;2023-01-20T17:01:24;36.20;;;14.30;;
58918;SDS011;44704;50.122;19.932;2023-01-20T17:03:59;33.80;;;13.90;;